sensor_id;sensor_type;location;lat;lon;timestamp;temperature;humidity
57108;DHT22;42987;52.916;6.542;2022-11-14T00:00:45;6.50;99.90
57108;DHT22;42987;52.916;6.542;2022-11-14T00:03:12;6.50;99.90
57108;DHT22;42987;52.916;6.542;2022-11-14T00:05:39;6.50;99.90
57108;DHT22;42987;52.916;6.542;2022-11-14T00:08:05;6.60;99.90
57108;DHT22;42987;52.916;6.542;2022-11-14T00:10:34;6.60;99.90
57108;DHT22;42987;52.916;6.542;2022-11-14T00:13:00;6.60;99.90
57108;DHT22;42987;52.916;6.542;2022-11-14T00:15:26;6.60;99.90
57108;DHT22;42987;52.916;6.542;2022-11-14T00:17:51;6.60;99.90
57108;DHT22;42987;52.916;6.542;2022-11-14T00:20:17;6.60;99.90
57108;DHT22;42987;52.916;6.542;2022-11-14T00:22:43;6.60;99.90
57108;DHT22;42987;52.916;6.542;2022-11-14T00:25:09;6.60;99.90
57108;DHT22;42987;52.916;6.542;2022-11-14T00:27:37;6.60;99.90
57108;DHT22;42987;52.916;6.542;2022-11-14T00:30:04;6.60;99.90
57108;DHT22;42987;52.916;6.542;2022-11-14T00:32:30;6.70;99.90
57108;DHT22;42987;52.916;6.542;2022-11-14T00:34:56;6.70;99.90
57108;DHT22;42987;52.916;6.542;2022-11-14T00:37:21;6.70;99.90
57108;DHT22;42987;52.916;6.542;2022-11-14T00:39:47;6.70;99.90
57108;DHT22;42987;52.916;6.542;2022-11-14T00:42:16;6.70;99.90
57108;DHT22;42987;52.916;6.542;2022-11-14T00:44:42;6.80;99.90
57108;DHT22;42987;52.916;6.542;2022-11-14T00:47:07;6.80;99.90
57108;DHT22;42987;52.916;6.542;2022-11-14T00:49:33;6.80;99.90
57108;DHT22;42987;52.916;6.542;2022-11-14T00:52:00;6.80;99.90
57108;DHT22;42987;52.916;6.542;2022-11-14T00:54:26;6.80;99.90
57108;DHT22;42987;52.916;6.542;2022-11-14T00:56:52;6.80;99.90
57108;DHT22;42987;52.916;6.542;2022-11-14T00:59:17;6.80;99.90
57108;DHT22;42987;52.916;6.542;2022-11-14T01:01:43;6.80;99.90
57108;DHT22;42987;52.916;6.542;2022-11-14T01:04:09;6.80;99.90
57108;DHT22;42987;52.916;6.542;2022-11-14T01:06:35;6.80;99.90
57108;DHT22;42987;52.916;6.542;2022-11-14T01:09:00;6.80;99.90
57108;DHT22;42987;52.916;6.542;2022-11-14T01:11:26;6.80;99.90
57108;DHT22;42987;52.916;6.542;2022-11-14T01:13:52;6.80;99.90
57108;DHT22;42987;52.916;6.542;2022-11-14T01:16:17;6.80;99.90
57108;DHT22;42987;52.916;6.542;2022-11-14T01:18:44;6.80;99.90
57108;DHT22;42987;52.916;6.542;2022-11-14T01:21:12;6.80;99.90
57108;DHT22;42987;52.916;6.542;2022-11-14T01:23:38;6.70;99.90
57108;DHT22;42987;52.916;6.542;2022-11-14T01:26:07;6.70;99.90
57108;DHT22;42987;52.916;6.542;2022-11-14T01:28:34;6.70;99.90
57108;DHT22;42987;52.916;6.542;2022-11-14T01:31:12;6.70;99.90
57108;DHT22;42987;52.916;6.542;2022-11-14T01:33:38;6.70;99.90
57108;DHT22;42987;52.916;6.542;2022-11-14T01:36:05;6.70;99.90
57108;DHT22;42987;52.916;6.542;2022-11-14T01:38:31;6.70;99.90
57108;DHT22;42987;52.916;6.542;2022-11-14T01:40:57;6.70;99.90
57108;DHT22;42987;52.916;6.542;2022-11-14T01:43:26;6.70;99.90
57108;DHT22;42987;52.916;6.542;2022-11-14T01:46:04;6.70;99.90
57108;DHT22;42987;52.916;6.542;2022-11-14T01:51:30;6.60;99.90
57108;DHT22;42987;52.916;6.542;2022-11-14T01:54:02;6.60;99.90
57108;DHT22;42987;52.916;6.542;2022-11-14T01:56:39;6.60;99.90
57108;DHT22;42987;52.916;6.542;2022-11-14T01:59:12;6.60;99.90
57108;DHT22;42987;52.916;6.542;2022-11-14T02:01:45;6.50;99.90
57108;DHT22;42987;52.916;6.542;2022-11-14T02:04:17;6.60;99.90
57108;DHT22;42987;52.916;6.542;2022-11-14T02:06:45;6.60;99.90
57108;DHT22;42987;52.916;6.542;2022-11-14T02:09:11;6.50;99.90
57108;DHT22;42987;52.916;6.542;2022-11-14T02:11:41;6.50;99.90
57108;DHT22;42987;52.916;6.542;2022-11-14T02:14:07;6.60;99.90
57108;DHT22;42987;52.916;6.542;2022-11-14T02:16:34;6.60;99.90
57108;DHT22;42987;52.916;6.542;2022-11-14T02:19:00;6.50;99.90
57108;DHT22;42987;52.916;6.542;2022-11-14T02:21:26;6.60;99.90
57108;DHT22;42987;52.916;6.542;2022-11-14T02:23:51;6.50;99.90
57108;DHT22;42987;52.916;6.542;2022-11-14T02:26:21;6.60;99.90
57108;DHT22;42987;52.916;6.542;2022-11-14T02:28:47;6.50;99.90
57108;DHT22;42987;52.916;6.542;2022-11-14T02:31:14;6.50;99.90
57108;DHT22;42987;52.916;6.542;2022-11-14T02:33:43;6.50;99.90
57108;DHT22;42987;52.916;6.542;2022-11-14T02:36:09;6.50;99.90
57108;DHT22;42987;52.916;6.542;2022-11-14T02:38:35;6.50;99.90
57108;DHT22;42987;52.916;6.542;2022-11-14T02:41:01;6.50;99.90
57108;DHT22;42987;52.916;6.542;2022-11-14T02:43:28;6.50;99.90
57108;DHT22;42987;52.916;6.542;2022-11-14T02:45:53;6.50;99.90
57108;DHT22;42987;52.916;6.542;2022-11-14T02:48:19;6.50;99.90
57108;DHT22;42987;52.916;6.542;2022-11-14T02:50:47;6.50;99.90
57108;DHT22;42987;52.916;6.542;2022-11-14T02:53:13;6.50;99.90
57108;DHT22;42987;52.916;6.542;2022-11-14T02:55:39;6.50;99.90
57108;DHT22;42987;52.916;6.542;2022-11-14T02:58:05;6.40;99.90
57108;DHT22;42987;52.916;6.542;2022-11-14T03:00:32;6.50;99.90
57108;DHT22;42987;52.916;6.542;2022-11-14T03:03:01;6.50;99.90
57108;DHT22;42987;52.916;6.542;2022-11-14T03:05:26;6.40;99.90
57108;DHT22;42987;52.916;6.542;2022-11-14T03:07:53;6.40;99.90
57108;DHT22;42987;52.916;6.542;2022-11-14T03:10:20;6.50;99.90
57108;DHT22;42987;52.916;6.542;2022-11-14T03:12:46;6.50;99.90
57108;DHT22;42987;52.916;6.542;2022-11-14T03:15:12;6.50;99.90
57108;DHT22;42987;52.916;6.542;2022-11-14T03:17:38;6.50;99.90
57108;DHT22;42987;52.916;6.542;2022-11-14T03:20:04;6.40;99.90
57108;DHT22;42987;52.916;6.542;2022-11-14T03:22:31;6.50;99.90
57108;DHT22;42987;52.916;6.542;2022-11-14T03:24:57;6.50;99.90
57108;DHT22;42987;52.916;6.542;2022-11-14T03:27:22;6.50;99.90
57108;DHT22;42987;52.916;6.542;2022-11-14T03:29:48;6.40;99.90
57108;DHT22;42987;52.916;6.542;2022-11-14T03:32:14;6.50;99.90
57108;DHT22;42987;52.916;6.542;2022-11-14T03:34:41;6.40;99.90
57108;DHT22;42987;52.916;6.542;2022-11-14T03:37:08;6.40;99.90
57108;DHT22;42987;52.916;6.542;2022-11-14T03:39:34;6.40;99.90
57108;DHT22;42987;52.916;6.542;2022-11-14T03:41:59;6.40;99.90
57108;DHT22;42987;52.916;6.542;2022-11-14T03:44:25;6.40;99.90
57108;DHT22;42987;52.916;6.542;2022-11-14T03:46:51;6.40;99.90
57108;DHT22;42987;52.916;6.542;2022-11-14T03:49:17;6.40;99.90
57108;DHT22;42987;52.916;6.542;2022-11-14T03:51:43;6.40;99.90
57108;DHT22;42987;52.916;6.542;2022-11-14T03:54:09;6.40;99.90
57108;DHT22;42987;52.916;6.542;2022-11-14T03:56:35;6.40;99.90
57108;DHT22;42987;52.916;6.542;2022-11-14T03:59:00;6.40;99.90
57108;DHT22;42987;52.916;6.542;2022-11-14T04:01:26;6.40;99.90
57108;DHT22;42987;52.916;6.542;2022-11-14T04:03:56;6.40;99.90
57108;DHT22;42987;52.916;6.542;2022-11-14T04:06:22;6.40;99.90
57108;DHT22;42987;52.916;6.542;2022-11-14T04:08:48;6.40;99.90
57108;DHT22;42987;52.916;6.542;2022-11-14T04:11:13;6.40;99.90
57108;DHT22;42987;52.916;6.542;2022-11-14T04:13:39;6.30;99.90
57108;DHT22;42987;52.916;6.542;2022-11-14T04:16:05;6.40;99.90
57108;DHT22;42987;52.916;6.542;2022-11-14T04:18:32;6.30;99.90
57108;DHT22;42987;52.916;6.542;2022-11-14T04:21:01;6.30;99.90
57108;DHT22;42987;52.916;6.542;2022-11-14T04:23:27;6.30;99.90
57108;DHT22;42987;52.916;6.542;2022-11-14T04:25:53;6.20;99.90
57108;DHT22;42987;52.916;6.542;2022-11-14T04:28:19;6.30;99.90
57108;DHT22;42987;52.916;6.542;2022-11-14T04:30:44;6.30;99.90
57108;DHT22;42987;52.916;6.542;2022-11-14T04:33:11;6.30;99.90
57108;DHT22;42987;52.916;6.542;2022-11-14T04:35:36;6.30;99.90
57108;DHT22;42987;52.916;6.542;2022-11-14T04:38:03;6.30;99.90
57108;DHT22;42987;52.916;6.542;2022-11-14T04:40:29;6.30;99.90
57108;DHT22;42987;52.916;6.542;2022-11-14T04:42:55;6.30;99.90
57108;DHT22;42987;52.916;6.542;2022-11-14T04:45:20;6.30;99.90
57108;DHT22;42987;52.916;6.542;2022-11-14T04:47:46;6.30;99.90
57108;DHT22;42987;52.916;6.542;2022-11-14T04:50:12;6.40;99.90
57108;DHT22;42987;52.916;6.542;2022-11-14T04:52:38;6.30;99.90
57108;DHT22;42987;52.916;6.542;2022-11-14T04:55:04;6.30;99.90
57108;DHT22;42987;52.916;6.542;2022-11-14T04:57:29;6.30;99.90
57108;DHT22;42987;52.916;6.542;2022-11-14T04:59:55;6.30;99.90
57108;DHT22;42987;52.916;6.542;2022-11-14T05:02:24;6.30;99.90
57108;DHT22;42987;52.916;6.542;2022-11-14T05:04:51;6.30;99.90
57108;DHT22;42987;52.916;6.542;2022-11-14T05:07:17;6.30;99.90
57108;DHT22;42987;52.916;6.542;2022-11-14T05:09:43;6.30;99.90
57108;DHT22;42987;52.916;6.542;2022-11-14T05:12:09;6.30;99.90
57108;DHT22;42987;52.916;6.542;2022-11-14T05:14:34;6.40;99.90
57108;DHT22;42987;52.916;6.542;2022-11-14T05:17:00;6.30;99.90
57108;DHT22;42987;52.916;6.542;2022-11-14T05:19:26;6.40;99.90
57108;DHT22;42987;52.916;6.542;2022-11-14T05:21:51;6.30;99.90
57108;DHT22;42987;52.916;6.542;2022-11-14T05:24:17;6.30;99.90
57108;DHT22;42987;52.916;6.542;2022-11-14T05:26:44;6.30;99.90
57108;DHT22;42987;52.916;6.542;2022-11-14T05:29:10;6.30;99.90
57108;DHT22;42987;52.916;6.542;2022-11-14T05:31:35;6.50;99.90
57108;DHT22;42987;52.916;6.542;2022-11-14T05:34:01;6.40;99.90
57108;DHT22;42987;52.916;6.542;2022-11-14T05:36:27;6.40;99.90
57108;DHT22;42987;52.916;6.542;2022-11-14T05:38:53;6.40;99.90
57108;DHT22;42987;52.916;6.542;2022-11-14T05:41:19;6.40;99.90
57108;DHT22;42987;52.916;6.542;2022-11-14T05:43:45;6.40;99.90
57108;DHT22;42987;52.916;6.542;2022-11-14T05:46:12;6.30;99.90
57108;DHT22;42987;52.916;6.542;2022-11-14T05:48:39;6.30;99.90
57108;DHT22;42987;52.916;6.542;2022-11-14T05:51:06;6.30;99.90
57108;DHT22;42987;52.916;6.542;2022-11-14T05:53:34;6.40;99.90
57108;DHT22;42987;52.916;6.542;2022-11-14T05:56:01;6.40;99.90
57108;DHT22;42987;52.916;6.542;2022-11-14T05:58:27;6.40;99.90
57108;DHT22;42987;52.916;6.542;2022-11-14T06:01:13;6.30;99.90
57108;DHT22;42987;52.916;6.542;2022-11-14T06:03:42;6.30;99.90
57108;DHT22;42987;52.916;6.542;2022-11-14T06:06:10;6.30;99.90
57108;DHT22;42987;52.916;6.542;2022-11-14T06:08:36;6.30;99.90
57108;DHT22;42987;52.916;6.542;2022-11-14T06:11:07;6.30;99.90
57108;DHT22;42987;52.916;6.542;2022-11-14T06:13:33;6.20;99.90
57108;DHT22;42987;52.916;6.542;2022-11-14T06:16:04;6.20;99.90
57108;DHT22;42987;52.916;6.542;2022-11-14T06:18:31;6.20;99.90
57108;DHT22;42987;52.916;6.542;2022-11-14T06:21:11;6.20;99.90
57108;DHT22;42987;52.916;6.542;2022-11-14T06:23:37;6.20;99.90
57108;DHT22;42987;52.916;6.542;2022-11-14T06:26:07;6.20;99.90
57108;DHT22;42987;52.916;6.542;2022-11-14T06:28:35;6.10;99.90
57108;DHT22;42987;52.916;6.542;2022-11-14T06:31:02;6.10;99.90
57108;DHT22;42987;52.916;6.542;2022-11-14T06:33:32;6.10;99.90
57108;DHT22;42987;52.916;6.542;2022-11-14T06:35:59;6.10;99.90
57108;DHT22;42987;52.916;6.542;2022-11-14T06:38:26;6.00;99.90
57108;DHT22;42987;52.916;6.542;2022-11-14T06:41:00;6.00;99.90
57108;DHT22;42987;52.916;6.542;2022-11-14T06:43:26;6.00;99.90
57108;DHT22;42987;52.916;6.542;2022-11-14T06:45:53;6.00;99.90
57108;DHT22;42987;52.916;6.542;2022-11-14T06:48:19;6.00;99.90
57108;DHT22;42987;52.916;6.542;2022-11-14T06:50:51;6.00;99.90
57108;DHT22;42987;52.916;6.542;2022-11-14T06:53:17;6.00;99.90
57108;DHT22;42987;52.916;6.542;2022-11-14T06:55:50;6.00;99.90
57108;DHT22;42987;52.916;6.542;2022-11-14T06:58:16;6.00;99.90
57108;DHT22;42987;52.916;6.542;2022-11-14T07:00:42;6.00;99.90
57108;DHT22;42987;52.916;6.542;2022-11-14T07:03:08;6.00;99.90
57108;DHT22;42987;52.916;6.542;2022-11-14T07:05:34;6.00;99.90
57108;DHT22;42987;52.916;6.542;2022-11-14T07:07:59;6.00;99.90
57108;DHT22;42987;52.916;6.542;2022-11-14T07:10:25;6.00;99.90
57108;DHT22;42987;52.916;6.542;2022-11-14T07:12:54;6.00;99.90
57108;DHT22;42987;52.916;6.542;2022-11-14T07:15:20;6.00;99.90
57108;DHT22;42987;52.916;6.542;2022-11-14T07:17:45;6.00;99.90
57108;DHT22;42987;52.916;6.542;2022-11-14T07:20:14;5.90;99.90
57108;DHT22;42987;52.916;6.542;2022-11-14T07:22:40;5.90;99.90
57108;DHT22;42987;52.916;6.542;2022-11-14T07:25:06;5.90;99.90
57108;DHT22;42987;52.916;6.542;2022-11-14T07:27:35;5.90;99.90
57108;DHT22;42987;52.916;6.542;2022-11-14T07:30:00;5.90;99.90
57108;DHT22;42987;52.916;6.542;2022-11-14T07:32:26;5.90;99.90
57108;DHT22;42987;52.916;6.542;2022-11-14T07:34:52;5.80;99.90
57108;DHT22;42987;52.916;6.542;2022-11-14T07:37:18;5.80;99.90
57108;DHT22;42987;52.916;6.542;2022-11-14T07:39:43;5.80;99.90
57108;DHT22;42987;52.916;6.542;2022-11-14T07:42:10;5.80;99.90
57108;DHT22;42987;52.916;6.542;2022-11-14T07:44:42;5.90;99.90
57108;DHT22;42987;52.916;6.542;2022-11-14T07:47:08;5.80;99.90
57108;DHT22;42987;52.916;6.542;2022-11-14T07:49:34;5.80;99.90
57108;DHT22;42987;52.916;6.542;2022-11-14T07:51:59;5.80;99.90
57108;DHT22;42987;52.916;6.542;2022-11-14T07:54:25;5.80;99.90
57108;DHT22;42987;52.916;6.542;2022-11-14T07:56:51;5.80;99.90
57108;DHT22;42987;52.916;6.542;2022-11-14T07:59:17;5.80;99.90
57108;DHT22;42987;52.916;6.542;2022-11-14T08:01:42;5.80;99.90
57108;DHT22;42987;52.916;6.542;2022-11-14T08:04:08;5.80;99.90
57108;DHT22;42987;52.916;6.542;2022-11-14T08:06:34;5.80;99.90
57108;DHT22;42987;52.916;6.542;2022-11-14T08:09:00;5.80;99.90
57108;DHT22;42987;52.916;6.542;2022-11-14T08:11:26;5.80;99.90
57108;DHT22;42987;52.916;6.542;2022-11-14T08:14:10;5.80;99.90
57108;DHT22;42987;52.916;6.542;2022-11-14T08:16:36;5.90;99.90
57108;DHT22;42987;52.916;6.542;2022-11-14T08:19:02;5.90;99.90
57108;DHT22;42987;52.916;6.542;2022-11-14T08:21:28;5.90;99.90
57108;DHT22;42987;52.916;6.542;2022-11-14T08:23:53;5.90;99.90
57108;DHT22;42987;52.916;6.542;2022-11-14T08:26:19;5.90;99.90
57108;DHT22;42987;52.916;6.542;2022-11-14T08:28:45;5.90;99.90
57108;DHT22;42987;52.916;6.542;2022-11-14T08:31:11;6.00;99.90
57108;DHT22;42987;52.916;6.542;2022-11-14T08:33:38;6.00;99.90
57108;DHT22;42987;52.916;6.542;2022-11-14T08:36:05;6.00;99.90
57108;DHT22;42987;52.916;6.542;2022-11-14T08:38:33;6.00;99.90
57108;DHT22;42987;52.916;6.542;2022-11-14T08:41:00;6.00;99.90
57108;DHT22;42987;52.916;6.542;2022-11-14T08:43:26;6.00;99.90
57108;DHT22;42987;52.916;6.542;2022-11-14T08:45:56;6.00;99.90
57108;DHT22;42987;52.916;6.542;2022-11-14T08:48:22;6.00;99.90
57108;DHT22;42987;52.916;6.542;2022-11-14T08:50:48;6.00;99.90
57108;DHT22;42987;52.916;6.542;2022-11-14T08:53:14;6.00;99.90
57108;DHT22;42987;52.916;6.542;2022-11-14T08:55:44;6.10;99.90
57108;DHT22;42987;52.916;6.542;2022-11-14T08:58:09;6.10;99.90
57108;DHT22;42987;52.916;6.542;2022-11-14T09:00:35;6.10;99.90
57108;DHT22;42987;52.916;6.542;2022-11-14T09:03:09;6.10;99.90
57108;DHT22;42987;52.916;6.542;2022-11-14T09:05:37;6.20;99.90
57108;DHT22;42987;52.916;6.542;2022-11-14T09:08:03;6.20;99.90
57108;DHT22;42987;52.916;6.542;2022-11-14T09:10:29;6.20;99.90
57108;DHT22;42987;52.916;6.542;2022-11-14T09:12:59;6.20;99.90
57108;DHT22;42987;52.916;6.542;2022-11-14T09:15:28;6.30;99.90
57108;DHT22;42987;52.916;6.542;2022-11-14T09:17:55;6.30;99.90
57108;DHT22;42987;52.916;6.542;2022-11-14T09:20:22;6.40;99.90
57108;DHT22;42987;52.916;6.542;2022-11-14T09:22:49;6.50;99.90
57108;DHT22;42987;52.916;6.542;2022-11-14T09:25:18;6.50;99.90
57108;DHT22;42987;52.916;6.542;2022-11-14T09:27:44;6.70;99.90
57108;DHT22;42987;52.916;6.542;2022-11-14T09:30:12;6.70;99.90
57108;DHT22;42987;52.916;6.542;2022-11-14T09:32:38;6.70;99.90
57108;DHT22;42987;52.916;6.542;2022-11-14T09:35:04;6.70;99.90
57108;DHT22;42987;52.916;6.542;2022-11-14T09:37:30;6.80;99.90
57108;DHT22;42987;52.916;6.542;2022-11-14T09:39:56;6.80;99.90
57108;DHT22;42987;52.916;6.542;2022-11-14T09:44:58;6.80;99.90
57108;DHT22;42987;52.916;6.542;2022-11-14T09:47:54;6.80;99.90
57108;DHT22;42987;52.916;6.542;2022-11-14T09:50:30;6.80;99.90
57108;DHT22;42987;52.916;6.542;2022-11-14T09:53:22;6.90;99.90
57108;DHT22;42987;52.916;6.542;2022-11-14T09:55:52;6.90;99.90
57108;DHT22;42987;52.916;6.542;2022-11-14T09:58:19;7.00;99.90
57108;DHT22;42987;52.916;6.542;2022-11-14T10:01:05;7.00;99.90
57108;DHT22;42987;52.916;6.542;2022-11-14T10:09:24;7.00;99.90
57108;DHT22;42987;52.916;6.542;2022-11-14T10:12:06;7.00;99.90
57108;DHT22;42987;52.916;6.542;2022-11-14T10:28:22;7.10;99.90
57108;DHT22;42987;52.916;6.542;2022-11-14T10:31:21;7.10;99.90
57108;DHT22;42987;52.916;6.542;2022-11-14T10:34:11;7.20;99.90
57108;DHT22;42987;52.916;6.542;2022-11-14T10:42:41;7.40;99.90
57108;DHT22;42987;52.916;6.542;2022-11-14T10:45:31;7.40;99.90
57108;DHT22;42987;52.916;6.542;2022-11-14T10:48:09;7.50;99.90
57108;DHT22;42987;52.916;6.542;2022-11-14T10:50:41;7.50;99.90
57108;DHT22;42987;52.916;6.542;2022-11-14T10:55:59;7.50;99.90
57108;DHT22;42987;52.916;6.542;2022-11-14T10:58:25;7.50;99.90
57108;DHT22;42987;52.916;6.542;2022-11-14T11:00:51;7.50;99.90
57108;DHT22;42987;52.916;6.542;2022-11-14T11:03:17;7.50;99.90
57108;DHT22;42987;52.916;6.542;2022-11-14T11:05:51;7.60;99.90
57108;DHT22;42987;52.916;6.542;2022-11-14T11:08:21;7.70;99.90
57108;DHT22;42987;52.916;6.542;2022-11-14T11:11:13;7.60;99.90
57108;DHT22;42987;52.916;6.542;2022-11-14T11:13:56;7.70;99.90
57108;DHT22;42987;52.916;6.542;2022-11-14T11:16:24;7.70;99.90
57108;DHT22;42987;52.916;6.542;2022-11-14T11:18:51;7.70;99.90
57108;DHT22;42987;52.916;6.542;2022-11-14T11:21:21;7.70;99.90
57108;DHT22;42987;52.916;6.542;2022-11-14T11:23:54;7.80;99.90
57108;DHT22;42987;52.916;6.542;2022-11-14T11:26:29;7.80;99.90
57108;DHT22;42987;52.916;6.542;2022-11-14T11:29:07;7.80;99.90
57108;DHT22;42987;52.916;6.542;2022-11-14T11:31:54;7.90;99.90
57108;DHT22;42987;52.916;6.542;2022-11-14T11:34:25;7.90;99.90
57108;DHT22;42987;52.916;6.542;2022-11-14T11:37:11;7.90;99.90
57108;DHT22;42987;52.916;6.542;2022-11-14T11:39:45;8.00;99.90
57108;DHT22;42987;52.916;6.542;2022-11-14T11:42:17;8.00;99.90
57108;DHT22;42987;52.916;6.542;2022-11-14T11:44:48;8.00;99.90
57108;DHT22;42987;52.916;6.542;2022-11-14T11:47:18;8.00;99.90
57108;DHT22;42987;52.916;6.542;2022-11-14T11:49:47;8.00;99.90
57108;DHT22;42987;52.916;6.542;2022-11-14T11:54:56;8.10;99.90
57108;DHT22;42987;52.916;6.542;2022-11-14T11:57:43;8.10;99.90
57108;DHT22;42987;52.916;6.542;2022-11-14T12:00:17;8.10;99.90
57108;DHT22;42987;52.916;6.542;2022-11-14T12:02:49;8.20;99.90
57108;DHT22;42987;52.916;6.542;2022-11-14T12:05:27;8.20;99.90
57108;DHT22;42987;52.916;6.542;2022-11-14T12:08:05;8.30;99.90
57108;DHT22;42987;52.916;6.542;2022-11-14T12:10:38;8.30;99.90
57108;DHT22;42987;52.916;6.542;2022-11-14T12:18:56;8.40;99.90
57108;DHT22;42987;52.916;6.542;2022-11-14T12:21:41;8.40;99.90
57108;DHT22;42987;52.916;6.542;2022-11-14T12:32:52;8.50;99.90
57108;DHT22;42987;52.916;6.542;2022-11-14T12:35:32;8.50;99.90
57108;DHT22;42987;52.916;6.542;2022-11-14T12:38:02;8.60;99.90
57108;DHT22;42987;52.916;6.542;2022-11-14T12:40:30;8.60;99.90
57108;DHT22;42987;52.916;6.542;2022-11-14T12:42:57;8.60;99.90
57108;DHT22;42987;52.916;6.542;2022-11-14T12:50:57;8.70;99.90
57108;DHT22;42987;52.916;6.542;2022-11-14T12:56:14;8.80;99.90
57108;DHT22;42987;52.916;6.542;2022-11-14T13:01:53;8.80;99.90
57108;DHT22;42987;52.916;6.542;2022-11-14T13:13:14;8.90;99.90
57108;DHT22;42987;52.916;6.542;2022-11-14T13:16:03;9.00;99.90
57108;DHT22;42987;52.916;6.542;2022-11-14T13:18:54;8.90;99.90
57108;DHT22;42987;52.916;6.542;2022-11-14T13:27:33;9.00;99.90
57108;DHT22;42987;52.916;6.542;2022-11-14T13:30:00;9.00;99.90
57108;DHT22;42987;52.916;6.542;2022-11-14T13:35:20;9.10;99.90
57108;DHT22;42987;52.916;6.542;2022-11-14T13:40:35;9.10;99.90
57108;DHT22;42987;52.916;6.542;2022-11-14T13:43:04;9.10;99.90
57108;DHT22;42987;52.916;6.542;2022-11-14T13:48:46;9.10;99.90
57108;DHT22;42987;52.916;6.542;2022-11-14T13:51:18;9.10;99.90
57108;DHT22;42987;52.916;6.542;2022-11-14T13:53:45;9.10;99.90
57108;DHT22;42987;52.916;6.542;2022-11-14T13:56:34;9.10;99.90
57108;DHT22;42987;52.916;6.542;2022-11-14T14:07:24;9.10;99.90
57108;DHT22;42987;52.916;6.542;2022-11-14T14:15:38;9.00;99.90
57108;DHT22;42987;52.916;6.542;2022-11-14T14:18:19;9.00;99.90
57108;DHT22;42987;52.916;6.542;2022-11-14T14:20:55;9.00;99.90
57108;DHT22;42987;52.916;6.542;2022-11-14T14:29:00;8.90;99.90
57108;DHT22;42987;52.916;6.542;2022-11-14T14:31:40;8.90;99.90
57108;DHT22;42987;52.916;6.542;2022-11-14T14:36:50;8.90;99.90
57108;DHT22;42987;52.916;6.542;2022-11-14T14:39:19;8.80;99.90
57108;DHT22;42987;52.916;6.542;2022-11-14T14:41:46;8.90;99.90
57108;DHT22;42987;52.916;6.542;2022-11-14T14:44:26;8.80;99.90
57108;DHT22;42987;52.916;6.542;2022-11-14T14:46:53;8.80;99.90
57108;DHT22;42987;52.916;6.542;2022-11-14T14:49:34;8.80;99.90
57108;DHT22;42987;52.916;6.542;2022-11-14T14:52:00;8.70;99.90
57108;DHT22;42987;52.916;6.542;2022-11-14T14:54:28;8.60;99.90
57108;DHT22;42987;52.916;6.542;2022-11-14T14:56:56;8.60;99.90
57108;DHT22;42987;52.916;6.542;2022-11-14T14:59:28;8.50;99.90
57108;DHT22;42987;52.916;6.542;2022-11-14T15:01:55;8.60;99.90
57108;DHT22;42987;52.916;6.542;2022-11-14T15:04:26;8.60;99.90
57108;DHT22;42987;52.916;6.542;2022-11-14T15:06:53;8.50;99.90
57108;DHT22;42987;52.916;6.542;2022-11-14T15:09:27;8.60;99.90
57108;DHT22;42987;52.916;6.542;2022-11-14T15:11:58;8.60;99.90
57108;DHT22;42987;52.916;6.542;2022-11-14T15:14:29;8.60;99.90
57108;DHT22;42987;52.916;6.542;2022-11-14T15:16:56;8.60;99.90
57108;DHT22;42987;52.916;6.542;2022-11-14T15:19:24;8.70;99.90
57108;DHT22;42987;52.916;6.542;2022-11-14T15:24:28;8.80;99.90
57108;DHT22;42987;52.916;6.542;2022-11-14T15:26:54;8.80;99.90
57108;DHT22;42987;52.916;6.542;2022-11-14T15:29:22;8.80;99.90
57108;DHT22;42987;52.916;6.542;2022-11-14T15:31:55;8.80;99.90
57108;DHT22;42987;52.916;6.542;2022-11-14T15:34:36;8.90;99.90
57108;DHT22;42987;52.916;6.542;2022-11-14T15:39:46;8.90;99.90
57108;DHT22;42987;52.916;6.542;2022-11-14T15:44:51;8.90;99.90
57108;DHT22;42987;52.916;6.542;2022-11-14T15:49:59;8.90;99.90
57108;DHT22;42987;52.916;6.542;2022-11-14T15:52:45;8.90;99.90
57108;DHT22;42987;52.916;6.542;2022-11-14T15:57:39;8.90;99.90
57108;DHT22;42987;52.916;6.542;2022-11-14T16:00:05;8.90;99.90
57108;DHT22;42987;52.916;6.542;2022-11-14T16:02:32;8.90;99.90
57108;DHT22;42987;52.916;6.542;2022-11-14T16:05:00;8.90;99.90
57108;DHT22;42987;52.916;6.542;2022-11-14T16:07:31;8.90;99.90
57108;DHT22;42987;52.916;6.542;2022-11-14T16:09:56;8.90;99.90
57108;DHT22;42987;52.916;6.542;2022-11-14T16:12:22;8.80;99.90
57108;DHT22;42987;52.916;6.542;2022-11-14T16:14:48;8.80;99.90
57108;DHT22;42987;52.916;6.542;2022-11-14T16:17:15;8.80;99.90
57108;DHT22;42987;52.916;6.542;2022-11-14T16:19:42;8.70;99.90
57108;DHT22;42987;52.916;6.542;2022-11-14T16:22:12;8.80;99.90
57108;DHT22;42987;52.916;6.542;2022-11-14T16:24:38;8.80;99.90
57108;DHT22;42987;52.916;6.542;2022-11-14T16:27:05;8.80;99.90
57108;DHT22;42987;52.916;6.542;2022-11-14T16:29:31;8.80;99.90
57108;DHT22;42987;52.916;6.542;2022-11-14T16:31:56;8.80;99.90
57108;DHT22;42987;52.916;6.542;2022-11-14T16:34:25;8.80;99.90
57108;DHT22;42987;52.916;6.542;2022-11-14T16:36:59;8.80;99.90
57108;DHT22;42987;52.916;6.542;2022-11-14T16:39:25;8.80;99.90
57108;DHT22;42987;52.916;6.542;2022-11-14T16:41:51;8.80;99.90
57108;DHT22;42987;52.916;6.542;2022-11-14T16:44:17;8.80;99.90
57108;DHT22;42987;52.916;6.542;2022-11-14T16:46:43;8.70;99.90
57108;DHT22;42987;52.916;6.542;2022-11-14T16:49:14;8.80;99.90
57108;DHT22;42987;52.916;6.542;2022-11-14T16:51:41;8.70;99.90
57108;DHT22;42987;52.916;6.542;2022-11-14T16:54:10;8.80;99.90
57108;DHT22;42987;52.916;6.542;2022-11-14T16:56:36;8.70;99.90
57108;DHT22;42987;52.916;6.542;2022-11-14T16:59:02;8.70;99.90
57108;DHT22;42987;52.916;6.542;2022-11-14T17:01:28;8.70;99.90
57108;DHT22;42987;52.916;6.542;2022-11-14T17:03:56;8.70;99.90
57108;DHT22;42987;52.916;6.542;2022-11-14T17:06:28;8.70;99.90
57108;DHT22;42987;52.916;6.542;2022-11-14T17:08:55;8.70;99.90
57108;DHT22;42987;52.916;6.542;2022-11-14T17:11:22;8.70;99.90
57108;DHT22;42987;52.916;6.542;2022-11-14T17:13:48;8.70;99.90
57108;DHT22;42987;52.916;6.542;2022-11-14T17:16:15;8.70;99.90
57108;DHT22;42987;52.916;6.542;2022-11-14T17:18:41;8.70;99.90
57108;DHT22;42987;52.916;6.542;2022-11-14T17:21:08;8.70;99.90
57108;DHT22;42987;52.916;6.542;2022-11-14T17:23:35;8.70;99.90
57108;DHT22;42987;52.916;6.542;2022-11-14T17:28:27;8.60;99.90
57108;DHT22;42987;52.916;6.542;2022-11-14T17:30:54;8.60;99.90
57108;DHT22;42987;52.916;6.542;2022-11-14T17:33:20;8.50;99.90
57108;DHT22;42987;52.916;6.542;2022-11-14T17:35:46;8.50;99.90
57108;DHT22;42987;52.916;6.542;2022-11-14T17:38:11;8.40;99.90
57108;DHT22;42987;52.916;6.542;2022-11-14T17:40:37;8.40;99.90
57108;DHT22;42987;52.916;6.542;2022-11-14T17:43:03;8.30;99.90
57108;DHT22;42987;52.916;6.542;2022-11-14T17:45:29;8.30;99.90
57108;DHT22;42987;52.916;6.542;2022-11-14T17:47:55;8.30;99.90
57108;DHT22;42987;52.916;6.542;2022-11-14T17:50:21;8.30;99.90
57108;DHT22;42987;52.916;6.542;2022-11-14T17:52:47;8.40;99.90
57108;DHT22;42987;52.916;6.542;2022-11-14T17:55:12;8.40;99.90
57108;DHT22;42987;52.916;6.542;2022-11-14T17:57:39;8.40;99.90